createdAt,value
2022-10-05T00:00:12.775Z,1010.35
2022-10-05T00:00:33.805Z,1010.33
2022-10-05T00:00:54.888Z,1010.33
2022-10-05T00:01:15.951Z,1010.33
2022-10-05T00:01:37.038Z,1010.33
2022-10-05T00:01:58.164Z,1010.35
2022-10-05T00:02:19.205Z,1010.35
2022-10-05T00:02:40.239Z,1010.37
2022-10-05T00:03:01.409Z,1010.35
2022-10-05T00:03:22.475Z,1010.37
2022-10-05T00:03:43.543Z,1010.38
2022-10-05T00:04:04.625Z,1010.37
2022-10-05T00:04:25.692Z,1010.38
2022-10-05T00:04:46.778Z,1010.38
2022-10-05T00:05:07.891Z,1010.40
2022-10-05T00:05:28.977Z,1010.40
2022-10-05T00:05:50.047Z,1010.37
2022-10-05T00:06:11.109Z,1010.37
2022-10-05T00:06:32.156Z,1010.37
2022-10-05T00:06:53.206Z,1010.38
2022-10-05T00:07:14.260Z,1010.37
2022-10-05T00:07:35.335Z,1010.35
2022-10-05T00:07:56.372Z,1010.35
2022-10-05T00:08:17.523Z,1010.35
2022-10-05T00:08:38.571Z,1010.37
2022-10-05T00:08:59.618Z,1010.37
2022-10-05T00:09:20.694Z,1010.33
2022-10-05T00:09:41.727Z,1010.33
2022-10-05T00:10:02.783Z,1010.35
2022-10-05T00:10:23.831Z,1010.35
2022-10-05T00:10:44.892Z,1010.37
2022-10-05T00:11:05.940Z,1010.33
2022-10-05T00:11:26.996Z,1010.35
2022-10-05T00:11:48.069Z,1010.35
2022-10-05T00:12:09.125Z,1010.33
2022-10-05T00:12:30.191Z,1010.31
2022-10-05T00:12:51.234Z,1010.31
2022-10-05T00:13:12.290Z,1010.33
2022-10-05T00:13:33.449Z,1010.33
2022-10-05T00:13:54.487Z,1010.33
2022-10-05T00:14:15.532Z,1010.35
2022-10-05T00:14:36.588Z,1010.33
2022-10-05T00:14:57.642Z,1010.33
2022-10-05T00:15:18.696Z,1010.31
2022-10-05T00:15:39.750Z,1010.31
2022-10-05T00:16:01.039Z,1010.31
2022-10-05T00:16:22.188Z,1010.31
2022-10-05T00:16:43.426Z,1010.31
2022-10-05T00:17:04.726Z,1010.31
2022-10-05T00:17:25.813Z,1010.31
2022-10-05T00:17:46.861Z,1010.31
2022-10-05T00:18:07.896Z,1010.31
2022-10-05T00:18:28.951Z,1010.29
2022-10-05T00:18:50.099Z,1010.29
2022-10-05T00:19:11.151Z,1010.29
2022-10-05T00:19:32.205Z,1010.27
2022-10-05T00:19:53.261Z,1010.27
2022-10-05T00:20:14.326Z,1010.27
2022-10-05T00:20:35.371Z,1010.23
2022-10-05T00:20:56.417Z,1010.23
2022-10-05T00:21:17.469Z,1010.25
2022-10-05T00:21:38.517Z,1010.23
2022-10-05T00:21:59.570Z,1010.25
2022-10-05T00:22:20.656Z,1010.21
2022-10-05T00:22:41.686Z,1010.21
2022-10-05T00:23:02.738Z,1010.21
2022-10-05T00:23:23.788Z,1010.23
2022-10-05T00:23:44.847Z,1010.21
2022-10-05T00:24:05.940Z,1010.23
2022-10-05T00:24:26.995Z,1010.23
2022-10-05T00:24:48.043Z,1010.23
2022-10-05T00:25:09.082Z,1010.21
2022-10-05T00:25:30.134Z,1010.21
2022-10-05T00:25:51.196Z,1010.23
2022-10-05T00:26:12.245Z,1010.23
2022-10-05T00:26:33.295Z,1010.23
2022-10-05T00:26:58.050Z,1010.23
2022-10-05T00:27:19.499Z,1010.21
2022-10-05T00:27:40.533Z,1010.25
2022-10-05T00:28:01.614Z,1010.21
2022-10-05T00:28:22.768Z,1010.23
2022-10-05T00:28:43.879Z,1010.19
2022-10-05T00:29:04.929Z,1010.23
2022-10-05T00:29:25.987Z,1010.21
2022-10-05T00:29:47.048Z,1010.19
2022-10-05T00:30:08.089Z,1010.17
2022-10-05T00:30:29.134Z,1010.21
2022-10-05T00:30:50.188Z,1010.21
2022-10-05T00:31:11.406Z,1010.17
2022-10-05T00:31:32.510Z,1010.19
2022-10-05T00:31:53.693Z,1010.19
2022-10-05T00:32:14.726Z,1010.19
2022-10-05T00:32:35.893Z,1010.19
2022-10-05T00:32:59.694Z,1010.19
2022-10-05T00:33:21.006Z,1010.15
2022-10-05T00:33:42.071Z,1010.15
2022-10-05T00:34:03.106Z,1010.15
2022-10-05T00:34:24.186Z,1010.17
2022-10-05T00:34:45.209Z,1010.17
2022-10-05T00:35:06.273Z,1010.15
2022-10-05T00:35:27.321Z,1010.15
2022-10-05T00:35:48.379Z,1010.15
2022-10-05T00:36:09.439Z,1010.13
2022-10-05T00:36:30.493Z,1010.13
2022-10-05T00:36:51.548Z,1010.13
2022-10-05T00:37:12.604Z,1010.13
2022-10-05T00:37:33.662Z,1010.11
2022-10-05T00:37:54.747Z,1010.11
2022-10-05T00:38:15.775Z,1010.13
2022-10-05T00:38:36.858Z,1010.15
2022-10-05T00:38:57.885Z,1010.11
2022-10-05T00:39:18.936Z,1010.11
2022-10-05T00:39:40.137Z,1010.07
2022-10-05T00:40:01.150Z,1010.07
2022-10-05T00:40:22.201Z,1010.09
2022-10-05T00:40:43.263Z,1010.07
2022-10-05T00:41:04.288Z,1010.05
2022-10-05T00:41:25.339Z,1010.05
2022-10-05T00:41:46.397Z,1010.07
2022-10-05T00:42:07.449Z,1010.07
2022-10-05T00:42:28.487Z,1010.03
2022-10-05T00:42:49.552Z,1010.05
2022-10-05T00:43:10.627Z,1010.07
2022-10-05T00:43:31.669Z,1010.01
2022-10-05T00:43:52.719Z,1010.01
2022-10-05T00:44:13.779Z,1010.03
2022-10-05T00:44:34.827Z,1010.05
2022-10-05T00:44:55.880Z,1010.05
2022-10-05T00:45:16.940Z,1010.05
2022-10-05T00:45:38.055Z,1010.05
2022-10-05T00:45:59.227Z,1010.07
2022-10-05T00:46:20.349Z,1010.09
2022-10-05T00:46:41.398Z,1010.05
2022-10-05T00:47:02.459Z,1010.05
2022-10-05T00:47:23.548Z,1010.07
2022-10-05T00:47:44.583Z,1010.07
2022-10-05T00:48:05.640Z,1010.09
2022-10-05T00:48:26.746Z,1010.05
2022-10-05T00:48:47.771Z,1010.09
2022-10-05T00:49:08.818Z,1010.07
2022-10-05T00:49:29.875Z,1010.05
2022-10-05T00:49:50.927Z,1010.09
2022-10-05T00:50:12.016Z,1010.07
2022-10-05T00:50:33.061Z,1010.05
2022-10-05T00:50:54.094Z,1010.05
2022-10-05T00:51:15.160Z,1010.05
2022-10-05T00:51:36.205Z,1010.03
2022-10-05T00:51:57.253Z,1010.03
2022-10-05T00:52:18.306Z,1010.01
2022-10-05T00:52:39.359Z,1010.01
2022-10-05T00:53:00.419Z,1010.01
2022-10-05T00:53:21.460Z,1009.99
2022-10-05T00:53:42.642Z,1009.99
2022-10-05T00:54:03.685Z,1009.97
2022-10-05T00:54:24.726Z,1009.95
2022-10-05T00:54:45.793Z,1009.95
2022-10-05T00:55:06.840Z,1009.97
2022-10-05T00:55:27.889Z,1009.97
2022-10-05T00:55:48.951Z,1009.95
2022-10-05T00:56:10.027Z,1009.93
2022-10-05T00:56:31.085Z,1009.95
2022-10-05T00:56:52.117Z,1009.95
2022-10-05T00:57:13.172Z,1009.95
2022-10-05T00:57:34.224Z,1009.95
2022-10-05T00:57:55.271Z,1009.95
2022-10-05T00:58:16.325Z,1009.93
2022-10-05T00:58:37.386Z,1009.93
2022-10-05T00:58:58.472Z,1009.93
2022-10-05T00:59:19.528Z,1009.93
2022-10-05T00:59:40.584Z,1009.95
2022-10-05T01:00:01.620Z,1009.95
2022-10-05T01:00:22.679Z,1009.93
2022-10-05T01:00:43.740Z,1009.95
2022-10-05T01:01:04.906Z,1009.93
2022-10-05T01:01:26.021Z,1009.93
2022-10-05T01:01:47.056Z,1009.93
2022-10-05T01:02:08.185Z,1009.95
2022-10-05T01:02:32.994Z,1009.95
2022-10-05T01:02:56.189Z,1009.93
2022-10-05T01:03:17.272Z,1009.95
2022-10-05T01:03:38.330Z,1009.91
2022-10-05T01:03:59.361Z,1009.95
2022-10-05T01:04:20.418Z,1009.93
2022-10-05T01:04:41.467Z,1009.90
2022-10-05T01:05:02.540Z,1009.90
2022-10-05T01:05:23.586Z,1009.90
2022-10-05T01:05:44.630Z,1009.88
2022-10-05T01:06:05.685Z,1009.90
2022-10-05T01:06:26.848Z,1009.88
2022-10-05T01:06:48.156Z,1009.88
2022-10-05T01:07:09.394Z,1009.86
2022-10-05T01:07:30.438Z,1009.86
2022-10-05T01:07:51.487Z,1009.86
2022-10-05T01:08:12.542Z,1009.88
2022-10-05T01:08:33.631Z,1009.86
2022-10-05T01:08:54.674Z,1009.88
2022-10-05T01:09:15.728Z,1009.90
2022-10-05T01:09:36.785Z,1009.88
2022-10-05T01:09:57.846Z,1009.91
2022-10-05T01:10:18.958Z,1009.93
2022-10-05T01:10:40.005Z,1009.93
2022-10-05T01:11:01.050Z,1009.95
2022-10-05T01:11:22.108Z,1009.99
2022-10-05T01:11:43.231Z,1009.95
2022-10-05T01:12:04.269Z,1009.97
2022-10-05T01:12:25.340Z,1009.97
2022-10-05T01:12:46.408Z,1009.99
2022-10-05T01:13:07.451Z,1010.01
2022-10-05T01:13:28.639Z,1010.01
2022-10-05T01:13:49.689Z,1010.01
2022-10-05T01:14:10.736Z,1010.01
2022-10-05T01:14:31.814Z,1010.03
2022-10-05T01:14:52.860Z,1009.99
2022-10-05T01:15:13.905Z,1010.01
2022-10-05T01:15:34.959Z,1009.99
2022-10-05T01:15:56.004Z,1009.99
2022-10-05T01:16:17.121Z,1009.99
2022-10-05T01:16:38.251Z,1009.99
2022-10-05T01:16:59.350Z,1009.95
2022-10-05T01:17:20.404Z,1009.95
2022-10-05T01:17:41.468Z,1009.95
2022-10-05T01:18:02.499Z,1009.95
2022-10-05T01:18:23.555Z,1009.95
2022-10-05T01:18:44.640Z,1009.93
2022-10-05T01:19:05.685Z,1009.95
2022-10-05T01:19:26.768Z,1009.93
2022-10-05T01:19:47.812Z,1009.93
2022-10-05T01:20:08.887Z,1009.95
2022-10-05T01:20:29.928Z,1009.93
2022-10-05T01:20:51.027Z,1009.93
2022-10-05T01:21:12.059Z,1009.93
2022-10-05T01:21:33.110Z,1009.91
2022-10-05T01:21:54.160Z,1009.91
2022-10-05T01:22:15.258Z,1009.91
2022-10-05T01:22:36.319Z,1009.93
2022-10-05T01:22:57.367Z,1009.91
2022-10-05T01:23:18.410Z,1009.93
2022-10-05T01:23:39.477Z,1009.93
2022-10-05T01:24:00.518Z,1009.95
2022-10-05T01:24:21.582Z,1009.95
2022-10-05T01:24:42.646Z,1009.95
2022-10-05T01:25:03.695Z,1009.95
2022-10-05T01:25:24.730Z,1009.91
2022-10-05T01:25:45.784Z,1009.91
2022-10-05T01:26:06.839Z,1009.93
2022-10-05T01:26:27.878Z,1009.93
2022-10-05T01:26:49.183Z,1009.93
2022-10-05T01:27:10.418Z,1009.93
2022-10-05T01:27:31.480Z,1009.91
2022-10-05T01:27:52.619Z,1009.91
2022-10-05T01:28:13.697Z,1009.93
2022-10-05T01:28:34.785Z,1009.91
2022-10-05T01:28:55.843Z,1009.93
2022-10-05T01:29:16.881Z,1009.93
2022-10-05T01:29:37.952Z,1009.90
2022-10-05T01:29:59.016Z,1009.90
2022-10-05T01:30:20.046Z,1009.91
2022-10-05T01:30:41.106Z,1009.91
2022-10-05T01:31:02.164Z,1009.91
2022-10-05T01:31:23.373Z,1009.91
2022-10-05T01:31:44.492Z,1009.88
2022-10-05T01:32:05.509Z,1009.88
2022-10-05T01:32:26.581Z,1009.88
2022-10-05T01:32:47.671Z,1009.88
2022-10-05T01:33:08.708Z,1009.88
2022-10-05T01:33:29.769Z,1009.90
2022-10-05T01:33:50.836Z,1009.90
2022-10-05T01:34:11.903Z,1009.91
2022-10-05T01:34:33.062Z,1009.88
2022-10-05T01:34:54.111Z,1009.90
2022-10-05T01:35:15.176Z,1009.90
2022-10-05T01:35:36.219Z,1009.90
2022-10-05T01:35:57.278Z,1009.91
2022-10-05T01:36:18.324Z,1009.91
2022-10-05T01:36:39.370Z,1009.93
2022-10-05T01:37:00.438Z,1009.91
2022-10-05T01:37:21.469Z,1009.90
2022-10-05T01:37:42.531Z,1009.95
2022-10-05T01:38:03.610Z,1009.93
2022-10-05T01:38:24.642Z,1009.93
2022-10-05T01:38:45.715Z,1009.93
2022-10-05T01:39:06.747Z,1009.91
2022-10-05T01:39:27.796Z,1009.93
2022-10-05T01:39:48.884Z,1009.93
2022-10-05T01:40:09.958Z,1009.93
2022-10-05T01:40:30.996Z,1009.91
2022-10-05T01:40:52.045Z,1009.95
2022-10-05T01:41:13.111Z,1009.95
2022-10-05T01:41:34.194Z,1009.93
2022-10-05T01:41:55.199Z,1009.95
2022-10-05T01:42:16.254Z,1009.93
2022-10-05T01:42:37.299Z,1009.95
2022-10-05T01:42:58.357Z,1009.95
2022-10-05T01:43:19.405Z,1009.97
2022-10-05T01:43:40.454Z,1009.95
2022-10-05T01:44:01.534Z,1009.95
2022-10-05T01:44:22.596Z,1009.97
2022-10-05T01:44:43.637Z,1009.97
2022-10-05T01:45:04.820Z,1009.95
2022-10-05T01:45:25.875Z,1009.99
2022-10-05T01:45:46.984Z,1009.97
2022-10-05T01:46:08.139Z,1009.95
2022-10-05T01:46:29.150Z,1009.95
2022-10-05T01:46:50.210Z,1009.97
2022-10-05T01:47:11.253Z,1009.99
2022-10-05T01:47:32.310Z,1009.99
2022-10-05T01:47:53.360Z,1009.95
2022-10-05T01:48:14.425Z,1010.01
2022-10-05T01:48:35.472Z,1009.99
2022-10-05T01:48:56.543Z,1009.99
2022-10-05T01:49:17.612Z,1010.01
2022-10-05T01:49:38.674Z,1009.97
2022-10-05T01:49:59.722Z,1009.97
2022-10-05T01:50:20.882Z,1009.97
2022-10-05T01:50:41.939Z,1009.97
2022-10-05T01:51:02.983Z,1009.97
2022-10-05T01:51:24.046Z,1009.99
2022-10-05T01:51:45.105Z,1009.97
2022-10-05T01:52:06.142Z,1009.97
2022-10-05T01:52:27.219Z,1009.95
2022-10-05T01:52:48.249Z,1009.91
2022-10-05T01:53:09.297Z,1009.93
2022-10-05T01:53:30.365Z,1009.97
2022-10-05T01:53:51.425Z,1009.93
2022-10-05T01:54:12.470Z,1009.95
2022-10-05T01:54:33.526Z,1009.93
2022-10-05T01:54:54.584Z,1009.95
2022-10-05T01:55:15.668Z,1009.93
2022-10-05T01:55:36.814Z,1009.95
2022-10-05T01:55:57.851Z,1009.93
2022-10-05T01:56:18.903Z,1009.95
2022-10-05T01:56:39.956Z,1009.93
2022-10-05T01:57:01.014Z,1009.95
2022-10-05T01:57:22.067Z,1009.97
2022-10-05T01:57:43.119Z,1009.95
2022-10-05T01:58:04.160Z,1009.93
2022-10-05T01:58:25.206Z,1009.97
2022-10-05T01:58:46.266Z,1009.91
2022-10-05T01:59:07.309Z,1009.91
2022-10-05T01:59:28.361Z,1009.91
2022-10-05T01:59:49.432Z,1009.90
2022-10-05T02:00:10.530Z,1009.90
2022-10-05T02:00:31.564Z,1009.88
2022-10-05T02:00:52.812Z,1009.88
2022-10-05T02:01:13.972Z,1009.86
2022-10-05T02:01:35.070Z,1009.86
2022-10-05T02:01:56.205Z,1009.86
2022-10-05T02:02:17.249Z,1009.84
2022-10-05T02:02:38.389Z,1009.82
2022-10-05T02:02:59.449Z,1009.84
2022-10-05T02:03:20.506Z,1009.80
2022-10-05T02:03:41.558Z,1009.82
2022-10-05T02:04:02.614Z,1009.80
2022-10-05T02:04:43.597Z,1009.80
2022-10-05T02:05:01.839Z,1009.76
2022-10-05T02:05:17.592Z,1009.74
2022-10-05T02:05:38.660Z,1009.78
2022-10-05T02:05:59.834Z,1009.76
2022-10-05T02:06:20.884Z,1009.74
2022-10-05T02:06:41.931Z,1009.74
2022-10-05T02:07:02.987Z,1009.74
2022-10-05T02:07:24.092Z,1009.70
2022-10-05T02:07:45.142Z,1009.68
2022-10-05T02:08:06.188Z,1009.72
2022-10-05T02:08:27.229Z,1009.78
2022-10-05T02:08:48.292Z,1009.78
2022-10-05T02:09:09.338Z,1009.78
2022-10-05T02:09:30.399Z,1009.76
2022-10-05T02:09:51.432Z,1009.74
2022-10-05T02:10:12.495Z,1009.74
2022-10-05T02:10:33.558Z,1009.74
2022-10-05T02:10:54.591Z,1009.72
2022-10-05T02:11:15.759Z,1009.70
2022-10-05T02:11:36.796Z,1009.70
2022-10-05T02:11:57.856Z,1009.70
2022-10-05T02:12:18.895Z,1009.70
2022-10-05T02:12:39.983Z,1009.62
2022-10-05T02:13:01.010Z,1009.68
2022-10-05T02:13:22.078Z,1009.68
2022-10-05T02:13:43.137Z,1009.66
2022-10-05T02:14:04.175Z,1009.66
2022-10-05T02:14:25.233Z,1009.64
2022-10-05T02:14:46.282Z,1009.58
2022-10-05T02:15:07.336Z,1009.66
2022-10-05T02:15:28.400Z,1009.64
2022-10-05T02:15:49.646Z,1009.66
2022-10-05T02:16:10.779Z,1009.64
2022-10-05T02:16:31.944Z,1009.64
2022-10-05T02:16:52.996Z,1009.62
2022-10-05T02:17:14.058Z,1009.64
2022-10-05T02:17:35.123Z,1009.66
2022-10-05T02:17:56.180Z,1009.62
2022-10-05T02:18:17.227Z,1009.60
2022-10-05T02:18:38.276Z,1009.60
2022-10-05T02:18:59.328Z,1009.62
2022-10-05T02:19:20.385Z,1009.62
2022-10-05T02:19:41.441Z,1009.60
2022-10-05T02:20:02.493Z,1009.60
2022-10-05T02:20:23.531Z,1009.62
2022-10-05T02:20:44.585Z,1009.56
2022-10-05T02:21:05.635Z,1009.58
2022-10-05T02:21:26.687Z,1009.54
2022-10-05T02:21:47.852Z,1009.56
2022-10-05T02:22:08.902Z,1009.54
2022-10-05T02:22:29.967Z,1009.56
2022-10-05T02:22:51.027Z,1009.52
2022-10-05T02:23:12.066Z,1009.52
2022-10-05T02:23:33.122Z,1009.54
2022-10-05T02:23:54.185Z,1009.54
2022-10-05T02:24:15.230Z,1009.54
2022-10-05T02:24:36.280Z,1009.52
2022-10-05T02:24:57.333Z,1009.52
2022-10-05T02:25:18.381Z,1009.48
2022-10-05T02:25:39.468Z,1009.52
2022-10-05T02:26:00.492Z,1009.52
2022-10-05T02:26:21.555Z,1009.50
2022-10-05T02:26:42.639Z,1009.48
2022-10-05T02:27:03.672Z,1009.46
2022-10-05T02:27:24.728Z,1009.50
2022-10-05T02:27:45.780Z,1009.46
2022-10-05T02:28:06.855Z,1009.50
2022-10-05T02:28:28.081Z,1009.44
2022-10-05T02:28:49.170Z,1009.44
2022-10-05T02:29:10.229Z,1009.44
2022-10-05T02:29:31.266Z,1009.44
2022-10-05T02:29:52.320Z,1009.41
2022-10-05T02:30:16.489Z,1009.44
2022-10-05T02:30:37.798Z,1009.43
2022-10-05T02:30:58.844Z,1009.41
2022-10-05T02:31:19.941Z,1009.41
2022-10-05T02:31:41.071Z,1009.43
2022-10-05T02:32:02.088Z,1009.41
2022-10-05T02:32:23.211Z,1009.41
2022-10-05T02:32:44.239Z,1009.41
2022-10-05T02:33:05.289Z,1009.44
2022-10-05T02:33:26.395Z,1009.43
2022-10-05T02:33:47.422Z,1009.39
2022-10-05T02:34:08.471Z,1009.41
2022-10-05T02:34:29.524Z,1009.43
2022-10-05T02:34:50.584Z,1009.37
2022-10-05T02:35:11.633Z,1009.41
2022-10-05T02:35:32.681Z,1009.41
2022-10-05T02:35:53.744Z,1009.41
2022-10-05T02:36:14.780Z,1009.41
2022-10-05T02:36:35.833Z,1009.41
2022-10-05T02:36:56.901Z,1009.37
2022-10-05T02:37:17.942Z,1009.41
2022-10-05T02:37:39.005Z,1009.41
2022-10-05T02:38:00.086Z,1009.41
2022-10-05T02:38:21.112Z,1009.39
2022-10-05T02:38:42.167Z,1009.41
2022-10-05T02:39:03.216Z,1009.39
2022-10-05T02:39:24.282Z,1009.41
2022-10-05T02:39:45.328Z,1009.39
2022-10-05T02:40:06.391Z,1009.37
2022-10-05T02:40:27.432Z,1009.37
2022-10-05T02:40:48.504Z,1009.39
2022-10-05T02:41:09.542Z,1009.37
2022-10-05T02:41:30.598Z,1009.35
2022-10-05T02:41:51.648Z,1009.35
2022-10-05T02:42:12.702Z,1009.31
2022-10-05T02:42:33.747Z,1009.35
2022-10-05T02:42:54.809Z,1009.31
2022-10-05T02:43:15.835Z,1009.35
2022-10-05T02:43:37.006Z,1009.31
2022-10-05T02:43:58.107Z,1009.29
2022-10-05T02:44:19.134Z,1009.29
2022-10-05T02:44:40.187Z,1009.27
2022-10-05T02:45:01.243Z,1009.25
2022-10-05T02:45:22.312Z,1009.25
2022-10-05T02:45:43.396Z,1009.25
2022-10-05T02:46:04.502Z,1009.23
2022-10-05T02:46:25.722Z,1009.23
2022-10-05T02:46:47.154Z,1009.21
2022-10-05T02:47:08.382Z,1009.19
2022-10-05T02:47:29.430Z,1009.19
2022-10-05T02:47:50.514Z,1009.19
2022-10-05T02:48:11.557Z,1009.13
2022-10-05T02:48:32.604Z,1009.19
2022-10-05T02:48:53.760Z,1009.13
2022-10-05T02:49:14.819Z,1009.17
2022-10-05T02:49:35.868Z,1009.09
2022-10-05T02:49:56.927Z,1009.15
2022-10-05T02:50:17.982Z,1009.09
2022-10-05T02:50:39.047Z,1009.07
2022-10-05T02:51:00.105Z,1009.09
2022-10-05T02:51:21.145Z,1009.09
2022-10-05T02:51:42.220Z,1009.09
2022-10-05T02:52:03.260Z,1009.15
2022-10-05T02:52:24.310Z,1009.09
2022-10-05T02:52:45.389Z,1009.07
2022-10-05T02:53:06.443Z,1009.09
2022-10-05T02:53:27.499Z,1009.07
2022-10-05T02:53:48.545Z,1009.09
2022-10-05T02:54:09.705Z,1009.07
2022-10-05T02:54:30.755Z,1009.07
2022-10-05T02:54:51.812Z,1009.07
2022-10-05T02:55:12.859Z,1009.07
2022-10-05T02:55:33.906Z,1009.07
2022-10-05T02:55:55.041Z,1009.05
2022-10-05T02:56:16.056Z,1009.07
2022-10-05T02:56:37.099Z,1009.07
2022-10-05T02:56:58.292Z,1009.07
2022-10-05T02:57:19.339Z,1009.07
2022-10-05T02:57:40.378Z,1009.05
2022-10-05T02:58:01.434Z,1009.07
2022-10-05T02:58:22.500Z,1009.05
2022-10-05T02:58:43.540Z,1009.03
2022-10-05T02:59:04.601Z,1009.05
2022-10-05T02:59:25.641Z,1009.01
2022-10-05T02:59:46.701Z,1009.07
2022-10-05T03:00:07.739Z,1009.03
2022-10-05T03:00:28.789Z,1009.01
2022-10-05T03:00:49.897Z,1009.03
2022-10-05T03:01:10.987Z,1009.03
2022-10-05T03:01:32.149Z,1009.01
2022-10-05T03:01:53.257Z,1009.01
2022-10-05T03:02:14.462Z,1009.03
2022-10-05T03:02:35.502Z,1008.99
2022-10-05T03:02:56.555Z,1009.01
2022-10-05T03:03:17.604Z,1009.03
2022-10-05T03:03:38.664Z,1008.99
2022-10-05T03:03:59.713Z,1008.99
2022-10-05T03:04:20.785Z,1008.99
2022-10-05T03:04:41.814Z,1008.99
2022-10-05T03:05:02.870Z,1009.01
2022-10-05T03:05:23.928Z,1008.99
2022-10-05T03:05:44.980Z,1009.01
2022-10-05T03:06:06.017Z,1009.01
2022-10-05T03:06:27.076Z,1008.99
2022-10-05T03:06:48.407Z,1009.01
2022-10-05T03:07:09.703Z,1009.01
2022-10-05T03:07:30.746Z,1009.01
2022-10-05T03:07:51.820Z,1009.01
2022-10-05T03:08:12.848Z,1008.99
2022-10-05T03:08:33.900Z,1009.01
2022-10-05T03:08:54.975Z,1008.97
2022-10-05T03:09:16.018Z,1009.03
2022-10-05T03:09:37.070Z,1008.99
2022-10-05T03:10:01.032Z,1009.03
2022-10-05T03:10:22.437Z,1009.03
2022-10-05T03:10:43.489Z,1009.03
2022-10-05T03:11:04.575Z,1009.05
2022-10-05T03:11:25.632Z,1009.01
2022-10-05T03:11:46.678Z,1009.03
2022-10-05T03:12:07.737Z,1009.03
2022-10-05T03:12:28.807Z,1009.01
2022-10-05T03:12:49.872Z,1009.07
2022-10-05T03:13:10.938Z,1009.03
2022-10-05T03:13:31.997Z,1009.01
2022-10-05T03:13:53.060Z,1009.03
2022-10-05T03:14:14.131Z,1009.03
2022-10-05T03:14:35.168Z,1009.03
2022-10-05T03:14:56.218Z,1009.05
2022-10-05T03:15:17.270Z,1009.07
2022-10-05T03:15:38.371Z,1009.03
2022-10-05T03:15:59.478Z,1009.03
2022-10-05T03:16:20.560Z,1009.07
2022-10-05T03:16:41.576Z,1009.09
2022-10-05T03:17:02.646Z,1009.09
2022-10-05T03:17:23.697Z,1009.07
2022-10-05T03:17:44.763Z,1009.07
2022-10-05T03:18:05.813Z,1009.09
2022-10-05T03:18:30.588Z,1009.09
2022-10-05T03:18:51.984Z,1009.11
2022-10-05T03:19:13.078Z,1009.09
2022-10-05T03:19:34.085Z,1009.11
2022-10-05T03:19:55.145Z,1009.07
2022-10-05T03:20:16.190Z,1009.07
2022-10-05T03:20:37.243Z,1009.09
2022-10-05T03:20:58.286Z,1009.09
2022-10-05T03:21:19.342Z,1009.11
2022-10-05T03:21:40.427Z,1009.13
2022-10-05T03:22:01.446Z,1009.11
2022-10-05T03:22:22.507Z,1009.09
2022-10-05T03:22:43.549Z,1009.11
2022-10-05T03:23:04.628Z,1009.13
2022-10-05T03:23:25.667Z,1009.13
2022-10-05T03:23:46.725Z,1009.15
2022-10-05T03:24:07.771Z,1009.17
2022-10-05T03:24:28.820Z,1009.15
2022-10-05T03:24:49.866Z,1009.17
2022-10-05T03:25:10.926Z,1009.17
2022-10-05T03:25:31.981Z,1009.19
2022-10-05T03:25:53.037Z,1009.19
2022-10-05T03:26:14.100Z,1009.19
2022-10-05T03:26:35.134Z,1009.21
2022-10-05T03:26:56.193Z,1009.19
2022-10-05T03:27:17.250Z,1009.19
2022-10-05T03:27:38.297Z,1009.19
2022-10-05T03:27:59.380Z,1009.19
2022-10-05T03:28:20.544Z,1009.21
2022-10-05T03:28:41.597Z,1009.19
2022-10-05T03:29:02.648Z,1009.21
2022-10-05T03:29:23.714Z,1009.19
2022-10-05T03:29:44.766Z,1009.21
2022-10-05T03:30:05.820Z,1009.19
2022-10-05T03:30:26.863Z,1009.19
2022-10-05T03:30:47.987Z,1009.19
2022-10-05T03:31:09.092Z,1009.19
2022-10-05T03:31:30.199Z,1009.17
2022-10-05T03:31:51.286Z,1009.17
2022-10-05T03:32:12.321Z,1009.19
2022-10-05T03:32:33.411Z,1009.19
2022-10-05T03:32:54.461Z,1009.19
2022-10-05T03:33:15.512Z,1009.21
2022-10-05T03:33:36.596Z,1009.19
2022-10-05T03:33:57.661Z,1009.21
2022-10-05T03:34:18.707Z,1009.21
2022-10-05T03:34:39.757Z,1009.21
2022-10-05T03:35:00.809Z,1009.23
2022-10-05T03:35:21.870Z,1009.25
2022-10-05T03:35:42.966Z,1009.25
2022-10-05T03:36:03.979Z,1009.23
2022-10-05T03:36:25.040Z,1009.29
2022-10-05T03:36:46.368Z,1009.25
2022-10-05T03:37:07.687Z,1009.27
2022-10-05T03:37:28.770Z,1009.29
2022-10-05T03:37:49.792Z,1009.29
2022-10-05T03:38:10.849Z,1009.23
2022-10-05T03:38:31.892Z,1009.31
2022-10-05T03:38:53.058Z,1009.31
2022-10-05T03:39:14.099Z,1009.33
2022-10-05T03:39:35.150Z,1009.35
2022-10-05T03:39:56.220Z,1009.29
2022-10-05T03:40:17.318Z,1009.31
2022-10-05T03:40:38.338Z,1009.31
2022-10-05T03:40:59.396Z,1009.31
2022-10-05T03:41:20.469Z,1009.31
2022-10-05T03:41:41.517Z,1009.33
2022-10-05T03:42:02.575Z,1009.31
2022-10-05T03:42:23.607Z,1009.31
2022-10-05T03:42:44.666Z,1009.33
2022-10-05T03:43:05.730Z,1009.31
2022-10-05T03:43:26.784Z,1009.29
2022-10-05T03:43:47.839Z,1009.31
2022-10-05T03:44:09.012Z,1009.31
2022-10-05T03:44:30.057Z,1009.33
2022-10-05T03:44:51.121Z,1009.33
2022-10-05T03:45:12.210Z,1009.35
2022-10-05T03:45:33.279Z,1009.35
2022-10-05T03:45:54.394Z,1009.37
2022-10-05T03:46:15.545Z,1009.35
2022-10-05T03:46:36.647Z,1009.37
2022-10-05T03:46:57.662Z,1009.37
2022-10-05T03:47:18.725Z,1009.37
2022-10-05T03:47:39.777Z,1009.39
2022-10-05T03:48:01.687Z,1009.41
2022-10-05T03:48:22.848Z,1009.43
2022-10-05T03:48:43.894Z,1009.39
2022-10-05T03:49:04.966Z,1009.43
2022-10-05T03:49:26.019Z,1009.41
2022-10-05T03:49:47.078Z,1009.44
2022-10-05T03:50:08.117Z,1009.43
2022-10-05T03:50:29.185Z,1009.46
2022-10-05T03:50:50.231Z,1009.44
2022-10-05T03:51:11.295Z,1009.44
2022-10-05T03:51:32.343Z,1009.46
2022-10-05T03:51:53.391Z,1009.44
2022-10-05T03:52:14.456Z,1009.46
2022-10-05T03:52:35.748Z,1009.48
2022-10-05T03:52:56.755Z,1009.48
2022-10-05T03:53:17.826Z,1009.46
2022-10-05T03:53:38.867Z,1009.48
2022-10-05T03:53:59.921Z,1009.48
2022-10-05T03:54:20.983Z,1009.48
2022-10-05T03:54:42.056Z,1009.52
2022-10-05T03:55:03.115Z,1009.48
2022-10-05T03:55:24.151Z,1009.50
2022-10-05T03:55:45.216Z,1009.50
2022-10-05T03:56:06.259Z,1009.52
2022-10-05T03:56:27.381Z,1009.52
2022-10-05T03:56:48.737Z,1009.52
2022-10-05T03:57:10.040Z,1009.46
2022-10-05T03:57:31.086Z,1009.46
2022-10-05T03:57:52.146Z,1009.48
2022-10-05T03:58:13.190Z,1009.48
2022-10-05T03:58:34.240Z,1009.48
2022-10-05T03:58:55.290Z,1009.48
2022-10-05T03:59:16.336Z,1009.48
2022-10-05T03:59:37.398Z,1009.50
2022-10-05T03:59:58.567Z,1009.48
2022-10-05T04:00:19.627Z,1009.46
2022-10-05T04:00:40.731Z,1009.46
2022-10-05T04:01:01.956Z,1009.46
2022-10-05T04:01:23.029Z,1009.44
2022-10-05T04:01:44.156Z,1009.46
2022-10-05T04:02:05.216Z,1009.46
2022-10-05T04:02:26.282Z,1009.48
2022-10-05T04:02:47.396Z,1009.48
2022-10-05T04:03:08.434Z,1009.48
2022-10-05T04:03:29.494Z,1009.50
2022-10-05T04:03:50.539Z,1009.52
2022-10-05T04:04:11.591Z,1009.48
2022-10-05T04:04:32.650Z,1009.50
2022-10-05T04:04:53.705Z,1009.50
2022-10-05T04:05:14.769Z,1009.52
2022-10-05T04:05:35.845Z,1009.52
2022-10-05T04:05:56.884Z,1009.54
2022-10-05T04:06:17.933Z,1009.52
2022-10-05T04:06:38.993Z,1009.52
2022-10-05T04:07:00.037Z,1009.52
2022-10-05T04:07:21.102Z,1009.56
2022-10-05T04:07:42.140Z,1009.54
2022-10-05T04:08:03.194Z,1009.56
2022-10-05T04:08:24.273Z,1009.54
2022-10-05T04:08:47.846Z,1009.56
2022-10-05T04:09:09.318Z,1009.56
2022-10-05T04:09:30.344Z,1009.58
2022-10-05T04:09:51.470Z,1009.58
2022-10-05T04:10:12.491Z,1009.54
2022-10-05T04:10:33.651Z,1009.56
2022-10-05T04:10:54.714Z,1009.56
2022-10-05T04:11:15.777Z,1009.54
2022-10-05T04:11:36.840Z,1009.54
2022-10-05T04:11:57.882Z,1009.52
2022-10-05T04:12:18.927Z,1009.50
2022-10-05T04:12:39.975Z,1009.52
2022-10-05T04:13:01.017Z,1009.54
2022-10-05T04:13:22.144Z,1009.52
2022-10-05T04:13:43.191Z,1009.50
2022-10-05T04:14:04.222Z,1009.50
2022-10-05T04:14:25.298Z,1009.48
2022-10-05T04:14:46.345Z,1009.50
2022-10-05T04:15:07.403Z,1009.48
2022-10-05T04:15:28.452Z,1009.48